createdAt,value
2023-03-05T00:00:16.197Z,41.17
2023-03-05T00:02:43.831Z,40.55
2023-03-05T00:05:11.490Z,42.13
2023-03-05T00:07:39.034Z,44.20
2023-03-05T00:10:07.007Z,47.10
2023-03-05T00:12:34.559Z,40.70
2023-03-05T00:15:02.110Z,43.47
2023-03-05T00:17:30.326Z,43.30
2023-03-05T00:20:00.304Z,43.22
2023-03-05T00:22:28.847Z,42.70
2023-03-05T00:24:56.374Z,47.40
2023-03-05T00:27:23.913Z,42.28
2023-03-05T00:29:51.602Z,40.78
2023-03-05T00:32:19.153Z,41.00
2023-03-05T00:34:46.833Z,47.75
2023-03-05T00:37:14.692Z,42.17
2023-03-05T00:39:42.261Z,27.80
2023-03-05T00:42:09.785Z,43.78
2023-03-05T00:44:37.317Z,44.53
2023-03-05T00:47:05.464Z,47.60
2023-03-05T00:49:32.962Z,45.13
2023-03-05T00:52:01.090Z,44.70
2023-03-05T00:54:28.640Z,43.42
2023-03-05T00:56:56.631Z,45.83
2023-03-05T00:59:24.153Z,49.58
2023-03-05T01:01:51.712Z,45.20
2023-03-05T01:04:19.327Z,43.20
2023-03-05T01:06:46.856Z,46.60
2023-03-05T01:09:14.741Z,45.10
2023-03-05T01:11:42.280Z,45.05
2023-03-05T01:14:09.918Z,45.38
2023-03-05T01:16:37.446Z,47.47
2023-03-05T01:19:05.018Z,47.05
2023-03-05T01:21:33.356Z,51.70
2023-03-05T01:24:00.931Z,47.83
2023-03-05T01:26:28.495Z,49.15
2023-03-05T01:28:56.098Z,47.85
2023-03-05T01:31:23.633Z,46.97
2023-03-05T01:33:54.498Z,47.17
2023-03-05T01:36:23.231Z,47.88
2023-03-05T01:38:51.062Z,46.33
2023-03-05T01:41:18.762Z,48.05
2023-03-05T01:43:46.461Z,49.17
2023-03-05T01:46:16.592Z,49.47
2023-03-05T01:48:48.347Z,41.22
2023-03-05T01:51:16.002Z,53.03
2023-03-05T01:53:43.539Z,46.53
2023-03-05T01:56:11.064Z,48.38
2023-03-05T01:58:39.742Z,47.70
2023-03-05T02:01:07.293Z,49.88
2023-03-05T02:03:34.867Z,49.22
2023-03-05T02:06:02.433Z,34.08
2023-03-05T02:08:29.946Z,46.28
2023-03-05T02:10:57.574Z,38.17
2023-03-05T02:13:26.087Z,38.63
2023-03-05T02:15:53.919Z,50.67
2023-03-05T02:18:21.821Z,45.65
2023-03-05T02:20:50.755Z,52.22
2023-03-05T02:23:18.648Z,55.67
2023-03-05T02:25:46.272Z,48.33
2023-03-05T02:28:32.692Z,53.28
2023-03-05T02:31:00.197Z,43.92
2023-03-05T02:33:28.016Z,52.88
2023-03-05T02:35:55.622Z,48.53
2023-03-05T02:40:51.366Z,48.47
2023-03-05T02:45:47.185Z,36.75
2023-03-05T02:48:14.766Z,48.58
2023-03-05T02:50:42.380Z,51.42
2023-03-05T02:53:10.159Z,43.10
2023-03-05T02:55:38.548Z,50.40
2023-03-05T02:58:06.302Z,52.08
2023-03-05T03:00:33.881Z,49.97
2023-03-05T03:03:01.455Z,51.92
2023-03-05T03:05:29.036Z,53.83
2023-03-05T03:07:56.557Z,52.47
2023-03-05T03:10:24.099Z,54.15
2023-03-05T03:12:51.608Z,50.25
2023-03-05T03:15:19.402Z,48.63
2023-03-05T03:17:46.921Z,50.92
2023-03-05T03:20:15.210Z,35.03
2023-03-05T03:25:10.894Z,46.05
2023-03-05T03:30:06.069Z,43.83
2023-03-05T03:32:33.607Z,48.70
2023-03-05T03:35:01.168Z,48.10
2023-03-05T03:37:28.789Z,45.22
2023-03-05T03:39:56.335Z,50.70
2023-03-05T03:42:24.042Z,51.03
2023-03-05T03:44:51.889Z,45.05
2023-03-05T03:47:19.538Z,47.40
2023-03-05T03:49:47.117Z,53.90
2023-03-05T03:52:15.080Z,43.60
2023-03-05T03:54:42.601Z,51.50
2023-03-05T03:57:10.140Z,48.17
2023-03-05T03:59:37.670Z,51.60
2023-03-05T04:02:05.181Z,48.53
2023-03-05T04:04:32.788Z,48.70
2023-03-05T04:07:00.328Z,49.67
2023-03-05T04:09:27.989Z,39.13
2023-03-05T04:11:55.505Z,50.03
2023-03-05T04:14:23.044Z,50.35
2023-03-05T04:16:50.583Z,47.65
2023-03-05T04:19:18.089Z,51.60
2023-03-05T04:21:45.669Z,40.67
2023-03-05T04:24:13.238Z,48.42
2023-03-05T04:26:40.767Z,37.47
2023-03-05T04:29:08.277Z,46.67
2023-03-05T04:31:35.889Z,46.53
2023-03-05T04:34:03.530Z,48.35
2023-03-05T04:36:31.065Z,47.15
2023-03-05T04:38:58.587Z,48.95
2023-03-05T04:41:26.120Z,54.92
2023-03-05T04:43:53.692Z,52.60
2023-03-05T04:46:21.305Z,54.28
2023-03-05T04:48:48.812Z,55.17
2023-03-05T04:51:16.305Z,45.92
2023-03-05T04:53:44.618Z,50.50
2023-03-05T04:58:39.568Z,47.15
2023-03-05T05:01:07.510Z,48.72
2023-03-05T05:03:35.178Z,50.30
2023-03-05T05:06:02.800Z,53.28
2023-03-05T05:08:30.399Z,34.55
2023-03-05T05:11:01.380Z,50.10
2023-03-05T05:13:29.358Z,50.28
2023-03-05T05:15:56.943Z,45.85
2023-03-05T05:18:24.517Z,38.72
2023-03-05T05:20:52.223Z,50.38
2023-03-05T05:23:19.930Z,43.17
2023-03-05T05:25:47.459Z,49.60
2023-03-05T05:28:14.949Z,54.58
2023-03-05T05:30:42.484Z,44.88
2023-03-05T05:33:09.977Z,51.53
2023-03-05T05:35:39.790Z,42.85
2023-03-05T05:38:07.313Z,50.50
2023-03-05T05:40:34.834Z,47.70
2023-03-05T05:43:02.352Z,47.00
2023-03-05T05:45:29.967Z,50.60
2023-03-05T05:47:57.601Z,34.40
2023-03-05T05:50:25.291Z,45.92
2023-03-05T05:52:52.825Z,48.33
2023-03-05T05:55:20.376Z,45.70
2023-03-05T05:57:47.931Z,49.15
2023-03-05T06:00:15.723Z,46.97
2023-03-05T06:02:43.339Z,34.85
2023-03-05T06:05:12.018Z,46.22
2023-03-05T06:07:39.606Z,44.78
2023-03-05T06:10:07.526Z,42.55
2023-03-05T06:12:35.135Z,45.40
2023-03-05T06:15:02.673Z,44.83
2023-03-05T06:17:31.161Z,30.27
2023-03-05T06:19:59.226Z,47.17
2023-03-05T06:22:26.911Z,41.72
2023-03-05T06:24:54.425Z,42.47
2023-03-05T06:27:22.164Z,49.50
2023-03-05T06:29:52.607Z,44.78
2023-03-05T06:32:20.435Z,39.75
2023-03-05T06:34:48.233Z,44.55
2023-03-05T06:37:15.790Z,42.97
2023-03-05T06:39:43.313Z,48.97
2023-03-05T06:42:10.821Z,49.60
2023-03-05T06:44:39.533Z,45.53
2023-03-05T06:47:07.650Z,45.65
2023-03-05T06:49:35.172Z,40.70
2023-03-05T06:52:02.706Z,44.13
2023-03-05T06:54:30.300Z,48.15
2023-03-05T06:56:57.870Z,50.22
2023-03-05T06:59:25.394Z,32.72
2023-03-05T07:01:52.904Z,44.08
2023-03-05T07:04:20.477Z,44.22
2023-03-05T07:06:48.079Z,44.33
2023-03-05T07:09:16.052Z,42.88
2023-03-05T07:11:43.623Z,42.70
2023-03-05T07:14:11.150Z,42.80
2023-03-05T07:16:38.677Z,39.28
2023-03-05T07:19:07.330Z,48.00
2023-03-05T07:21:38.185Z,42.03
2023-03-05T07:24:07.288Z,43.40
2023-03-05T07:26:34.861Z,42.55
2023-03-05T07:29:02.458Z,44.17
2023-03-05T07:31:31.779Z,41.90
2023-03-05T07:33:59.772Z,46.08
2023-03-05T07:36:27.446Z,43.22
2023-03-05T07:38:55.031Z,47.47
2023-03-05T07:41:23.470Z,42.40
2023-03-05T07:43:52.241Z,50.22
2023-03-05T07:46:20.308Z,44.92
2023-03-05T07:48:47.871Z,47.55
2023-03-05T07:51:16.141Z,41.63
2023-03-05T07:53:44.013Z,41.95
2023-03-05T07:56:11.684Z,45.22
2023-03-05T07:58:39.382Z,47.05
2023-03-05T08:01:13.422Z,44.38
2023-03-05T08:03:41.562Z,45.67
2023-03-05T08:06:09.356Z,43.33
2023-03-05T08:08:36.879Z,46.65
2023-03-05T08:11:05.543Z,46.03
2023-03-05T08:13:33.222Z,45.90
2023-03-05T08:16:00.772Z,39.92
2023-03-05T08:18:28.309Z,44.20
2023-03-05T08:20:55.846Z,48.08
2023-03-05T08:23:23.388Z,48.80
2023-03-05T08:25:50.914Z,48.03
2023-03-05T08:28:19.661Z,44.45
2023-03-05T08:30:47.696Z,42.47
2023-03-05T08:33:17.364Z,45.55
2023-03-05T08:35:45.300Z,40.25
2023-03-05T08:38:13.469Z,48.20
2023-03-05T08:40:41.026Z,48.15
2023-03-05T08:43:08.527Z,42.60
2023-03-05T08:45:36.045Z,46.35
2023-03-05T08:48:03.566Z,43.97
2023-03-05T08:50:31.177Z,41.60
2023-03-05T08:53:00.041Z,33.83
2023-03-05T08:55:27.605Z,39.67
2023-03-05T08:57:55.237Z,44.65
2023-03-05T09:00:22.897Z,42.63
2023-03-05T09:02:51.168Z,29.25
2023-03-05T09:07:47.118Z,44.90
2023-03-05T09:10:14.740Z,42.38
2023-03-05T09:12:42.562Z,27.17
2023-03-05T09:15:10.380Z,41.72
2023-03-05T09:17:38.288Z,29.30
2023-03-05T09:20:06.413Z,38.17
2023-03-05T09:22:33.948Z,42.58
2023-03-05T09:25:01.471Z,40.65
2023-03-05T09:27:29.446Z,43.55
2023-03-05T09:29:56.984Z,41.20
2023-03-05T09:32:24.570Z,29.13
2023-03-05T09:34:52.121Z,47.00
2023-03-05T09:37:19.677Z,42.05
2023-03-05T09:39:47.221Z,45.45
2023-03-05T09:42:23.882Z,28.17
2023-03-05T09:45:06.253Z,42.65
2023-03-05T09:47:42.892Z,38.28
2023-03-05T09:50:15.148Z,42.40
2023-03-05T09:52:55.471Z,44.15
2023-03-05T09:55:26.928Z,49.97
2023-03-05T09:57:55.252Z,37.67
2023-03-05T10:02:55.685Z,44.20
2023-03-05T10:05:32.123Z,45.70
2023-03-05T10:08:01.328Z,39.50
2023-03-05T10:10:32.418Z,43.97
2023-03-05T10:13:00.886Z,40.28
2023-03-05T10:15:35.609Z,49.30
2023-03-05T10:18:12.557Z,42.17
2023-03-05T10:20:59.078Z,44.65
2023-03-05T10:23:29.966Z,39.10
2023-03-05T10:25:57.481Z,45.78
2023-03-05T10:28:30.319Z,37.80
2023-03-05T10:31:04.808Z,50.17
2023-03-05T10:33:44.305Z,50.58
2023-03-05T10:36:29.146Z,41.38
2023-03-05T10:39:09.124Z,52.92
2023-03-05T10:41:53.183Z,44.92
2023-03-05T10:44:23.740Z,42.70
2023-03-05T10:46:51.306Z,53.85
2023-03-05T10:49:23.609Z,42.15
2023-03-05T10:51:53.262Z,49.95
2023-03-05T10:54:25.568Z,48.75
2023-03-05T10:57:03.180Z,42.83
2023-03-05T10:59:30.768Z,41.83
2023-03-05T11:02:08.711Z,43.92
2023-03-05T11:04:37.383Z,41.03
2023-03-05T11:07:28.256Z,40.13
2023-03-05T11:10:04.525Z,50.83
2023-03-05T11:12:32.072Z,38.92
2023-03-05T11:15:14.928Z,43.33
2023-03-05T11:17:48.973Z,38.28
2023-03-05T11:20:31.819Z,43.60
2023-03-05T11:23:05.315Z,41.42
2023-03-05T11:25:33.771Z,42.85
2023-03-05T11:28:01.623Z,39.15
2023-03-05T11:30:36.063Z,38.17
2023-03-05T11:33:10.595Z,43.63
2023-03-05T11:35:39.673Z,43.90
2023-03-05T11:38:07.725Z,33.58
2023-03-05T11:40:37.965Z,37.90
2023-03-05T11:43:05.604Z,38.17
2023-03-05T11:45:34.007Z,36.05
2023-03-05T11:48:05.618Z,40.08
2023-03-05T11:50:33.585Z,39.42
2023-03-05T11:53:03.144Z,33.83
2023-03-05T11:55:30.767Z,33.80
2023-03-05T11:58:11.788Z,35.75
2023-03-05T12:00:39.749Z,33.10
2023-03-05T12:03:08.988Z,32.65
2023-03-05T12:05:36.604Z,36.45
2023-03-05T12:08:05.705Z,32.53
2023-03-05T12:10:33.248Z,33.20
2023-03-05T12:13:03.711Z,44.28
2023-03-05T12:15:37.467Z,27.92
2023-03-05T12:18:07.292Z,34.25
2023-03-05T12:20:34.937Z,36.88
2023-03-05T12:23:02.510Z,33.88
2023-03-05T12:25:34.099Z,30.60
2023-03-05T12:28:01.934Z,32.95
2023-03-05T12:30:35.572Z,35.72
2023-03-05T12:33:03.622Z,38.53
2023-03-05T12:35:38.344Z,28.85
2023-03-05T12:38:25.628Z,30.40
2023-03-05T12:43:30.740Z,29.75
2023-03-05T12:46:17.153Z,28.90
2023-03-05T12:48:45.016Z,36.30
2023-03-05T12:51:13.044Z,30.70
2023-03-05T12:53:40.537Z,37.05
2023-03-05T12:56:17.173Z,29.02
2023-03-05T12:58:45.279Z,39.70
2023-03-05T13:01:12.849Z,32.05
2023-03-05T13:03:41.366Z,28.50
2023-03-05T13:06:20.911Z,27.10
2023-03-05T13:08:50.450Z,32.22
2023-03-05T13:11:19.593Z,34.70
2023-03-05T13:13:47.420Z,32.95
2023-03-05T13:16:25.334Z,31.08
2023-03-05T13:18:53.293Z,24.85
2023-03-05T13:21:21.496Z,39.95
2023-03-05T13:23:59.031Z,28.98
2023-03-05T13:26:30.056Z,36.67
2023-03-05T13:29:13.770Z,30.38
2023-03-05T13:31:45.277Z,27.92
2023-03-05T13:34:20.172Z,32.00
2023-03-05T13:36:48.497Z,29.08
2023-03-05T13:41:43.421Z,28.13
2023-03-05T13:44:17.957Z,28.73
2023-03-05T13:46:45.493Z,29.83
2023-03-05T13:49:26.200Z,26.35
2023-03-05T13:51:54.648Z,33.28
2023-03-05T13:54:22.893Z,30.27
2023-03-05T13:56:51.579Z,31.50
2023-03-05T13:59:19.857Z,28.90
2023-03-05T14:04:15.743Z,25.92
2023-03-05T14:06:50.565Z,32.08
2023-03-05T14:09:22.532Z,39.53
2023-03-05T14:12:16.612Z,30.52
2023-03-05T14:14:44.180Z,27.85
2023-03-05T14:17:22.106Z,27.42
2023-03-05T14:19:49.715Z,32.40
2023-03-05T14:22:30.476Z,24.88
2023-03-05T14:24:57.979Z,28.38
2023-03-05T14:27:25.471Z,27.48
2023-03-05T14:29:53.005Z,29.95
2023-03-05T14:32:23.885Z,32.75
2023-03-05T14:34:56.538Z,29.20
2023-03-05T14:37:32.714Z,33.78
2023-03-05T14:40:01.130Z,29.77
2023-03-05T14:42:28.762Z,30.55
2023-03-05T14:44:56.911Z,34.58
2023-03-05T14:47:24.907Z,29.15
2023-03-05T14:49:52.545Z,29.08
2023-03-05T14:52:20.653Z,41.78
2023-03-05T14:54:48.162Z,34.50
2023-03-05T14:57:16.520Z,30.65
2023-03-05T15:02:15.682Z,28.48
2023-03-05T15:04:45.497Z,27.85
2023-03-05T15:07:19.223Z,34.90
2023-03-05T15:09:46.847Z,31.52
2023-03-05T15:12:14.941Z,33.67
2023-03-05T15:14:43.412Z,31.65
2023-03-05T15:17:31.201Z,27.73
2023-03-05T15:19:58.723Z,29.15
2023-03-05T15:22:26.251Z,30.48
2023-03-05T15:24:53.777Z,30.60
2023-03-05T15:27:21.284Z,21.23
2023-03-05T15:29:48.827Z,28.05
2023-03-05T15:32:16.486Z,26.33
2023-03-05T15:34:44.103Z,29.45
2023-03-05T15:37:11.800Z,28.33
2023-03-05T15:39:39.359Z,36.85
2023-03-05T15:42:07.033Z,27.10
2023-03-05T15:44:34.583Z,18.50
2023-03-05T15:47:02.194Z,28.52
2023-03-05T15:49:29.729Z,24.13
2023-03-05T15:51:57.371Z,23.00
2023-03-05T15:54:25.044Z,28.15
2023-03-05T15:56:52.668Z,23.35
2023-03-05T15:59:20.380Z,19.63
2023-03-05T16:01:49.718Z,19.73
2023-03-05T16:04:17.377Z,18.55
2023-03-05T16:06:45.754Z,19.48
2023-03-05T16:11:41.966Z,21.02
2023-03-05T16:14:09.692Z,21.02
2023-03-05T16:16:37.376Z,19.40
2023-03-05T16:19:05.332Z,18.08
2023-03-05T16:21:32.831Z,22.27
2023-03-05T16:24:00.404Z,17.98
2023-03-05T16:26:28.021Z,32.35
2023-03-05T16:28:55.580Z,18.83
2023-03-05T16:31:23.143Z,16.75
2023-03-05T16:33:50.690Z,14.35
2023-03-05T16:36:25.609Z,17.08
2023-03-05T16:38:53.616Z,20.33
2023-03-05T16:41:23.169Z,22.40
2023-03-05T16:43:53.446Z,21.48
2023-03-05T16:46:21.122Z,19.45
2023-03-05T16:48:48.666Z,23.00
2023-03-05T16:51:16.187Z,16.52
2023-03-05T16:53:43.695Z,19.23
2023-03-05T16:56:11.247Z,24.60
2023-03-05T16:58:39.087Z,17.20
2023-03-05T17:01:15.647Z,15.70
2023-03-05T17:03:43.942Z,15.25
2023-03-05T17:08:39.008Z,23.05
2023-03-05T17:11:06.564Z,19.23
2023-03-05T17:13:34.068Z,17.83
2023-03-05T17:16:01.639Z,17.38
2023-03-05T17:18:29.316Z,19.67
2023-03-05T17:20:56.849Z,18.27
2023-03-05T17:23:24.477Z,21.38
2023-03-05T17:25:52.051Z,19.10
2023-03-05T17:28:19.572Z,21.27
2023-03-05T17:30:47.149Z,19.75
2023-03-05T17:33:14.741Z,19.38
2023-03-05T17:35:46.976Z,19.70
2023-03-05T17:38:14.778Z,17.95
2023-03-05T17:40:42.342Z,20.58
2023-03-05T17:43:09.998Z,18.42
2023-03-05T17:45:37.592Z,12.25
2023-03-05T17:48:05.211Z,22.85
2023-03-05T17:50:32.754Z,17.45
2023-03-05T17:53:00.311Z,22.27
2023-03-05T17:55:27.869Z,23.90
2023-03-05T17:57:55.453Z,24.33
2023-03-05T18:00:23.917Z,16.05
2023-03-05T18:02:51.487Z,18.58
2023-03-05T18:05:19.936Z,18.58
2023-03-05T18:07:47.635Z,26.80
2023-03-05T18:10:15.345Z,18.23
2023-03-05T18:12:42.986Z,17.70
2023-03-05T18:15:11.288Z,18.33
2023-03-05T18:20:06.592Z,19.63
2023-03-05T18:22:34.207Z,23.10
2023-03-05T18:25:01.699Z,17.13
2023-03-05T18:27:30.998Z,29.15
2023-03-05T18:29:58.572Z,20.48
2023-03-05T18:32:26.455Z,22.83
2023-03-05T18:34:53.999Z,21.00
2023-03-05T18:37:21.539Z,22.73
2023-03-05T18:39:49.042Z,25.83
2023-03-05T18:42:16.545Z,22.95
2023-03-05T18:44:44.100Z,19.83
2023-03-05T18:47:11.625Z,21.90
2023-03-05T18:49:39.136Z,23.90
2023-03-05T18:52:06.658Z,21.70
2023-03-05T18:54:34.222Z,19.70
2023-03-05T18:57:01.767Z,24.25
2023-03-05T18:59:30.160Z,23.13
2023-03-05T19:01:57.683Z,24.35
2023-03-05T19:04:25.394Z,18.42
2023-03-05T19:06:52.935Z,19.85
2023-03-05T19:09:46.543Z,20.95
2023-03-05T19:12:16.798Z,22.85
2023-03-05T19:14:44.328Z,21.75
2023-03-05T19:17:11.829Z,19.83
2023-03-05T19:19:42.590Z,22.30
2023-03-05T19:22:10.843Z,22.73
2023-03-05T19:27:11.020Z,25.85
2023-03-05T19:29:40.107Z,25.40
2023-03-05T19:32:08.241Z,20.02
2023-03-05T19:34:35.853Z,25.25
2023-03-05T19:37:03.477Z,20.88
2023-03-05T19:39:31.183Z,22.73
2023-03-05T19:41:58.720Z,18.88
2023-03-05T19:44:26.334Z,21.58
2023-03-05T19:46:53.850Z,16.23
2023-03-05T19:49:21.463Z,20.48
2023-03-05T19:51:49.373Z,18.80
2023-03-05T19:54:17.278Z,19.02
2023-03-05T19:56:45.291Z,23.85
2023-03-05T19:59:14.232Z,17.88
2023-03-05T20:01:41.803Z,20.00
2023-03-05T20:04:09.369Z,22.58
2023-03-05T20:06:36.889Z,23.80
2023-03-05T20:09:05.983Z,22.10
2023-03-05T20:11:35.106Z,24.60
2023-03-05T20:14:02.642Z,25.80
2023-03-05T20:16:31.310Z,24.98
2023-03-05T20:18:59.220Z,23.83
2023-03-05T20:21:27.652Z,21.45
2023-03-05T20:23:56.060Z,24.05
2023-03-05T20:26:23.697Z,23.58
2023-03-05T20:28:51.298Z,24.85
2023-03-05T20:31:19.383Z,23.95
2023-03-05T20:33:47.026Z,24.88
2023-03-05T20:36:14.624Z,25.23
2023-03-05T20:38:42.165Z,22.77
2023-03-05T20:41:10.670Z,22.58
2023-03-05T20:43:40.713Z,25.50
2023-03-05T20:46:14.982Z,27.50
2023-03-05T20:48:42.634Z,36.47
2023-03-05T20:51:13.886Z,36.17
2023-03-05T20:53:41.488Z,32.00
2023-03-05T20:56:09.166Z,25.17
2023-03-05T20:58:37.597Z,22.92
2023-03-05T21:01:05.222Z,22.90
2023-03-05T21:03:32.894Z,22.90
2023-03-05T21:06:02.200Z,19.23
2023-03-05T21:08:29.697Z,23.55
2023-03-05T21:10:57.296Z,26.92
2023-03-05T21:13:25.318Z,21.40
2023-03-05T21:15:52.921Z,23.35
2023-03-05T21:18:20.497Z,19.95
2023-03-05T21:20:48.042Z,23.33
2023-03-05T21:23:15.680Z,24.45
2023-03-05T21:25:43.261Z,27.83
2023-03-05T21:28:17.744Z,33.88
2023-03-05T21:30:46.225Z,25.33
2023-03-05T21:33:17.605Z,22.85
2023-03-05T21:35:45.230Z,23.88
2023-03-05T21:38:14.025Z,28.30
2023-03-05T21:40:44.255Z,24.38
2023-03-05T21:43:12.586Z,31.65
2023-03-05T21:48:07.793Z,30.30
2023-03-05T21:50:35.359Z,24.95
2023-03-05T21:53:02.907Z,20.85
2023-03-05T21:56:16.549Z,24.98
2023-03-05T21:58:49.341Z,27.48
2023-03-05T22:01:18.328Z,26.20
2023-03-05T22:03:46.337Z,29.67
2023-03-05T22:06:14.136Z,29.85
2023-03-05T22:08:41.984Z,28.25
2023-03-05T22:11:10.337Z,26.90
2023-03-05T22:16:05.924Z,18.98
2023-03-05T22:18:33.549Z,28.90
2023-03-05T22:21:01.223Z,22.83
2023-03-05T22:23:29.794Z,32.53
2023-03-05T22:25:58.008Z,29.67
2023-03-05T22:30:53.088Z,36.50
2023-03-05T22:33:23.002Z,34.00
2023-03-05T22:35:50.879Z,30.13
2023-03-05T22:38:18.511Z,29.33
2023-03-05T22:40:46.680Z,32.50
2023-03-05T22:43:14.350Z,29.33
2023-03-05T22:45:41.961Z,29.83
2023-03-05T22:48:12.174Z,25.65
2023-03-05T22:50:39.917Z,30.42
2023-03-05T22:53:07.483Z,29.25
2023-03-05T22:55:35.109Z,22.00
2023-03-05T22:58:02.609Z,27.70
2023-03-05T23:00:30.141Z,30.17
2023-03-05T23:02:57.729Z,30.35
2023-03-05T23:05:25.266Z,22.33
2023-03-05T23:07:52.834Z,28.10
2023-03-05T23:10:26.423Z,29.90
2023-03-05T23:12:54.877Z,26.40
2023-03-05T23:15:26.464Z,33.20
2023-03-05T23:17:53.999Z,25.45
2023-03-05T23:20:22.365Z,29.25
2023-03-05T23:25:17.360Z,33.55
2023-03-05T23:27:45.201Z,24.35
2023-03-05T23:30:21.898Z,29.10
2023-03-05T23:32:50.671Z,25.35
2023-03-05T23:35:19.600Z,24.50
2023-03-05T23:37:47.361Z,23.40
2023-03-05T23:40:16.200Z,28.33
2023-03-05T23:42:43.951Z,24.73
2023-03-05T23:45:12.415Z,32.97
2023-03-05T23:47:39.938Z,24.52
2023-03-05T23:50:08.080Z,29.13
2023-03-05T23:52:35.629Z,30.20
2023-03-05T23:55:03.202Z,30.33
2023-03-05T23:57:30.805Z,19.92
2023-03-05T23:59:58.295Z,25.58
